Time;durP1;ratioP1;P1;durP2;ratioP2;P2;SDS_P1;SDS_P2;PMS_P1;PMS_P2;Temp;Humidity;BMP_temperature;BMP_pressure;BME280_temperature;BME280_humidity;BME280_pressure;Samples;Min_cycle;Max_cycle;Signal;HPM_P1;HPM_P2
2022/11/22 00:02:18;;;;;;;14.57;7.63;;;;;;;4.16;100.00;99078.59;5033998;28;20056;-81
2022/11/22 00:04:43;;;;;;;20.77;8.18;;;;;;;4.09;100.00;99075.72;5033859;28;20053;-81
2022/11/22 00:07:09;;;;;;;17.50;8.10;;;;;;;4.07;100.00;99077.63;5033911;28;20029;-81
2022/11/22 00:09:34;;;;;;;14.35;7.88;;;;;;;4.06;100.00;99074.19;5033654;28;20033;-80
2022/11/22 00:11:59;;;;;;;16.20;8.15;;;;;;;4.05;100.00;99069.06;5033825;28;20029;-79
2022/11/22 00:14:25;;;;;;;19.00;7.80;;;;;;;4.01;100.00;99060.59;5033511;28;20022;-80
2022/11/22 00:16:50;;;;;;;17.48;8.32;;;;;;;3.97;100.00;99058.38;5034100;28;20049;-80
2022/11/22 00:19:16;;;;;;;19.80;8.45;;;;;;;3.88;100.00;99066.16;5033630;28;20029;-80
2022/11/22 00:21:41;;;;;;;19.23;8.10;;;;;;;3.83;100.00;99064.91;5033815;28;20370;-81
2022/11/22 00:24:06;;;;;;;17.52;8.80;;;;;;;3.77;100.00;99070.72;5033748;28;20041;-82
2022/11/22 00:26:32;;;;;;;21.90;9.30;;;;;;;3.77;100.00;99073.38;5036227;28;20033;-81
2022/11/22 00:28:57;;;;;;;23.58;9.63;;;;;;;3.81;100.00;99072.94;5033839;28;20041;-80
2022/11/22 00:31:23;;;;;;;14.85;8.40;;;;;;;3.78;100.00;99069.78;5033614;28;20057;-81
2022/11/22 00:33:48;;;;;;;20.27;9.88;;;;;;;3.75;100.00;99075.28;5033164;28;20037;-81
2022/11/22 00:36:15;;;;;;;22.30;9.70;;;;;;;3.72;100.00;99060.63;5032904;28;20128;-81
2022/11/22 00:38:41;;;;;;;23.17;10.38;;;;;;;3.75;100.00;99070.03;5033808;28;20034;-80
2022/11/22 00:41:06;;;;;;;19.25;9.45;;;;;;;3.72;100.00;99073.78;5033139;28;20025;-81
2022/11/22 00:43:32;;;;;;;22.15;9.60;;;;;;;3.75;100.00;99078.75;5033356;28;20335;-82
2022/11/22 00:45:58;;;;;;;21.48;9.32;;;;;;;3.79;100.00;99093.31;5033339;28;20080;-80
2022/11/22 00:48:24;;;;;;;25.73;9.70;;;;;;;3.80;100.00;99086.25;5033536;28;20049;-80
2022/11/22 00:50:49;;;;;;;27.33;9.23;;;;;;;3.79;100.00;99082.78;5033463;28;20026;-81
2022/11/22 00:53:14;;;;;;;23.67;9.65;;;;;;;3.74;100.00;99079.72;5033506;28;20029;-80
2022/11/22 00:55:40;;;;;;;20.90;8.60;;;;;;;3.70;100.00;99075.69;5033581;28;20338;-80
2022/11/22 00:58:05;;;;;;;17.65;8.65;;;;;;;3.65;100.00;99075.31;5033422;28;20438;-81
2022/11/22 01:00:30;;;;;;;22.13;9.13;;;;;;;3.61;100.00;99087.06;5033191;28;20061;-82
2022/11/22 01:02:56;;;;;;;25.35;9.38;;;;;;;3.56;100.00;99078.75;5033196;28;20068;-80
2022/11/22 01:05:21;;;;;;;22.48;8.30;;;;;;;3.50;100.00;99072.25;5033191;28;20096;-79
2022/11/22 01:07:46;;;;;;;20.88;7.75;;;;;;;3.52;100.00;99075.56;5033580;28;20033;-80
2022/11/22 01:10:12;;;;;;;15.80;7.25;;;;;;;3.51;100.00;99081.81;5031901;28;20470;-81
2022/11/22 01:12:37;;;;;;;21.35;7.70;;;;;;;3.53;100.00;99079.84;5032919;28;20029;-79
2022/11/22 01:15:03;;;;;;;22.30;7.20;;;;;;;3.47;100.00;99073.34;5033071;28;20156;-79
2022/11/22 01:17:29;;;;;;;25.90;7.70;;;;;;;3.43;100.00;99074.56;5032994;28;20056;-80
2022/11/22 01:19:54;;;;;;;23.00;6.55;;;;;;;3.39;100.00;99067.94;5032869;28;20116;-80
2022/11/22 01:22:19;;;;;;;25.85;6.75;;;;;;;3.38;100.00;99071.53;5032982;28;20033;-80
2022/11/22 01:24:45;;;;;;;16.13;5.80;;;;;;;3.34;100.00;99070.97;5033184;28;20029;-81
2022/11/22 01:27:10;;;;;;;14.25;5.15;;;;;;;3.30;100.00;99074.84;5033026;28;20117;-80
2022/11/22 01:29:36;;;;;;;22.83;6.07;;;;;;;3.27;100.00;99080.38;5032913;28;20072;-80
2022/11/22 01:32:01;;;;;;;22.08;6.20;;;;;;;3.24;100.00;99082.44;5032881;28;20044;-80
2022/11/22 01:34:27;;;;;;;19.77;5.65;;;;;;;3.18;100.00;99079.38;5032803;28;20113;-81
2022/11/22 01:36:52;;;;;;;23.75;5.70;;;;;;;3.13;100.00;99080.75;5033377;28;20021;-80
2022/11/22 01:39:17;;;;;;;23.13;5.07;;;;;;;3.13;100.00;99084.19;5031550;28;20366;-80
2022/11/22 01:41:43;;;;;;;15.35;4.18;;;;;;;3.14;100.00;99074.53;5032801;28;20485;-81
2022/11/22 01:44:29;;;;;;;18.55;4.13;;;;;;;3.14;100.00;99074.53;5033253;28;20030;-81
2022/11/22 01:47:19;;;;;;;21.90;4.50;;;;;;;3.16;100.00;99069.97;5033975;28;20365;-80
2022/11/22 01:49:52;;;;;;;13.73;3.85;;;;;;;3.14;100.00;99070.09;5036284;28;20041;-80
2022/11/22 01:52:20;;;;;;;20.98;4.22;;;;;;;3.12;100.00;99076.44;5036336;28;20520;-81
2022/11/22 01:54:57;;;;;;;24.70;4.32;;;;;;;3.14;100.00;99070.09;5036275;28;20083;-80
2022/11/22 01:57:27;;;;;;;17.15;3.67;;;;;;;3.23;100.00;99073.72;5036558;28;20025;-81
2022/11/22 01:59:58;;;;;;;21.38;4.15;;;;;;;3.21;100.00;99082.69;5036386;28;20021;-80
2022/11/22 02:02:23;;;;;;;23.55;4.50;;;;;;;3.25;100.00;99078.84;5035992;28;20026;-80
2022/11/22 02:04:53;;;;;;;23.20;4.97;;;;;;;3.26;100.00;99088.41;5036111;28;20454;-80
2022/11/22 02:07:23;;;;;;;18.90;4.35;;;;;;;3.31;100.00;99089.66;5035971;28;20049;-83
2022/11/22 02:09:51;;;;;;;18.15;3.88;;;;;;;3.34;100.00;99096.44;5036036;28;20128;-81
2022/11/22 02:12:18;;;;;;;22.35;4.43;;;;;;;3.42;100.00;99090.47;5035725;28;20116;-81
2022/11/22 02:14:44;;;;;;;20.67;4.32;;;;;;;3.45;100.00;99085.81;5035994;28;20026;-80
2022/11/22 02:17:10;;;;;;;22.00;4.30;;;;;;;3.45;100.00;99087.56;5035633;28;20068;-82
2022/11/22 02:19:42;;;;;;;16.13;3.67;;;;;;;3.53;100.00;99082.47;5036263;28;20461;-81
2022/11/22 02:22:35;;;;;;;25.02;3.75;;;;;;;3.50;100.00;99093.28;5036231;28;20032;-81
2022/11/22 02:25:19;;;;;;;17.42;3.63;;;;;;;3.48;100.00;99095.22;5035701;28;20063;-81
2022/11/22 02:27:44;;;;;;;15.27;3.13;;;;;;;3.46;100.00;99097.13;5035724;28;20029;-82
2022/11/22 02:30:11;;;;;;;21.33;3.50;;;;;;;3.42;100.00;99090.47;5035543;28;20454;-81
2022/11/22 02:32:36;;;;;;;19.77;3.30;;;;;;;3.39;100.00;99102.13;5051053;28;20369;-82
2022/11/22 02:35:02;;;;;;;15.30;3.20;;;;;;;3.37;100.00;99111.09;5034303;28;20041;-83
2022/11/22 02:37:30;;;;;;;24.17;4.00;;;;;;;3.28;100.00;99097.78;5036183;28;20063;-82
2022/11/22 02:39:59;;;;;;;24.38;4.28;;;;;;;3.21;100.00;99103.72;5035253;28;20037;-82
2022/11/22 02:42:27;;;;;;;17.50;3.60;;;;;;;3.18;100.00;99112.72;5035688;28;20331;-83
2022/11/22 02:44:53;;;;;;;17.58;3.50;;;;;;;3.18;100.00;99115.34;5035439;28;20025;-81
2022/11/22 02:47:18;;;;;;;18.77;3.28;;;;;;;3.20;100.00;99110.78;5035377;28;20029;-81
2022/11/22 02:49:46;;;;;;;20.52;4.07;;;;;;;3.15;100.00;99111.19;5035017;28;20473;-82
2022/11/22 02:52:18;;;;;;;12.70;3.45;;;;;;;3.13;100.00;99118.34;5035518;28;20036;-81
2022/11/22 02:54:44;;;;;;;20.08;3.47;;;;;;;3.14;100.00;99109.53;5035221;28;20100;-81
2022/11/22 02:57:10;;;;;;;16.50;3.22;;;;;;;3.17;100.00;99119.75;5035096;28;20029;-83
2022/11/22 02:59:35;;;;;;;20.08;3.92;;;;;;;3.22;100.00;99111.47;5034455;28;20516;-83
2022/11/22 03:02:01;;;;;;;14.88;3.15;;;;;;;3.25;100.00;99118.28;5035038;28;20045;-82
2022/11/22 03:04:26;;;;;;;14.20;3.30;;;;;;;3.28;100.00;99120.63;5035092;28;20131;-82
2022/11/22 03:06:57;;;;;;;14.43;3.28;;;;;;;3.42;100.00;99122.03;5034822;28;20040;-82
2022/11/22 03:09:23;;;;;;;17.90;3.10;;;;;;;3.48;100.00;99124.97;5034867;28;20076;-84
2022/11/22 03:11:49;;;;;;;12.15;2.30;;;;;;;3.60;100.00;99136.22;5034825;28;20075;-83
2022/11/22 03:14:14;;;;;;;7.88;2.45;;;;;;;3.59;100.00;99133.72;5034718;28;20367;-83
2022/11/22 03:16:44;;;;;;;16.73;2.28;;;;;;;3.62;100.00;99129.00;5034424;28;20050;-82
2022/11/22 03:19:10;;;;;;;14.80;3.00;;;;;;;3.61;100.00;99132.59;5034639;28;20061;-85
2022/11/22 03:21:37;;;;;;;12.05;2.20;;;;;;;3.62;100.00;99133.44;5034678;28;20476;-83
2022/11/22 03:24:02;;;;;;;12.68;2.53;;;;;;;3.60;100.00;99128.31;5034666;28;20095;-82
2022/11/22 03:26:28;;;;;;;9.85;2.03;;;;;;;3.60;100.00;99127.47;5034564;28;20442;-84
2022/11/22 03:28:53;;;;;;;14.25;2.50;;;;;;;3.59;100.00;99134.53;5034337;28;20434;-82
2022/11/22 03:31:18;;;;;;;8.77;2.05;;;;;;;3.51;100.00;99129.97;5034151;28;20074;-83
2022/11/22 03:33:44;;;;;;;9.65;1.70;;;;;;;3.47;100.00;99133.00;5034750;28;20358;-82
2022/11/22 03:36:09;;;;;;;10.82;1.92;;;;;;;3.34;100.00;99141.97;5034379;28;20037;-81
2022/11/22 03:38:35;;;;;;;8.40;2.17;;;;;;;3.31;100.00;99134.34;5034279;28;20030;-82
2022/11/22 03:41:00;;;;;;;7.68;1.65;;;;;;;3.30;100.00;99129.19;5034353;28;20106;-82
2022/11/22 03:43:26;;;;;;;8.52;2.15;;;;;;;3.27;100.00;99129.47;5034663;28;20033;-83
2022/11/22 03:45:51;;;;;;;11.70;2.10;;;;;;;3.27;100.00;99132.09;5034020;28;20442;-81
2022/11/22 03:48:17;;;;;;;16.80;2.40;;;;;;;3.23;100.00;99133.34;5034458;28;20025;-82
2022/11/22 03:50:42;;;;;;;9.75;2.30;;;;;;;3.12;100.00;99127.22;5034049;28;20029;-82
2022/11/22 03:53:08;;;;;;;10.07;2.30;;;;;;;2.99;100.00;99135.34;5033714;28;20405;-78
2022/11/22 03:55:33;;;;;;;8.85;1.90;;;;;;;2.99;100.00;99145.84;5033807;28;20025;-83
2022/11/22 03:57:58;;;;;;;9.43;2.53;;;;;;;3.03;100.00;99135.91;5033893;28;20042;-82
2022/11/22 04:00:24;;;;;;;8.20;2.13;;;;;;;3.02;100.00;99149.19;5049387;28;20095;-83
2022/11/22 04:02:49;;;;;;;11.98;2.50;;;;;;;2.98;100.00;99146.78;5033741;28;20029;-84
2022/11/22 04:05:15;;;;;;;10.70;1.80;;;;;;;2.93;100.00;99149.00;5034378;28;20029;-83
2022/11/22 04:07:41;;;;;;;8.50;2.00;;;;;;;2.84;100.00;99157.66;5033353;28;20472;-83
2022/11/22 04:10:07;;;;;;;10.10;2.30;;;;;;;2.94;100.00;99160.34;5033609;28;20057;-83
2022/11/22 04:12:32;;;;;;;9.82;2.22;;;;;;;2.87;100.00;99165.28;5033437;28;20025;-83
2022/11/22 04:15:06;;;;;;;18.60;3.03;;;;;;;2.86;100.00;99163.63;5033509;28;20029;-82
2022/11/22 04:17:44;;;;;;;9.77;2.88;;;;;;;2.88;100.00;99161.72;5033720;28;20049;-85
2022/11/22 04:23:11;;;;;;;8.00;1.75;;;;;;;2.81;100.00;99156.13;5034155;28;20516;-81
2022/11/22 04:25:39;;;;;;;6.53;1.75;;;;;;;2.83;100.00;99167.31;5032349;28;20017;-84
2022/11/22 04:28:06;;;;;;;6.18;1.40;;;;;;;2.90;100.00;99169.47;5033879;28;20037;-82
2022/11/22 04:33:17;;;;;;;17.52;2.13;;;;;;;2.92;100.00;99167.53;5034041;28;20040;-82
2022/11/22 04:35:43;;;;;;;6.18;2.30;;;;;;;2.94;100.00;99173.47;5034049;28;20029;-83
2022/11/22 04:38:09;;;;;;;11.40;2.17;;;;;;;3.01;100.00;99172.00;5033676;28;20033;-82
2022/11/22 04:40:35;;;;;;;11.07;1.98;;;;;;;3.07;100.00;99165.38;5033879;28;20025;-83
2022/11/22 04:45:46;;;;;;;10.55;2.05;;;;;;;3.18;100.00;99173.19;5033895;28;20056;-82
2022/11/22 04:48:11;;;;;;;9.40;2.67;;;;;;;3.23;100.00;99176.22;5033442;28;20052;-85
2022/11/22 04:53:23;;;;;;;15.20;2.63;;;;;;;3.30;100.00;99177.38;5033197;28;20126;-82
2022/11/22 04:55:49;;;;;;;8.57;2.08;;;;;;;3.33;100.00;99178.91;5033336;28;20018;-82
2022/11/22 04:58:14;;;;;;;7.82;1.75;;;;;;;3.35;100.00;99176.97;5033164;28;20450;-81
2022/11/22 05:00:40;;;;;;;12.52;2.38;;;;;;;3.37;100.00;99169.78;5033950;28;20048;-83
2022/11/22 05:03:05;;;;;;;10.93;2.70;;;;;;;3.39;100.00;99183.63;5034076;28;20408;-82
2022/11/22 05:05:38;;;;;;;8.10;2.50;;;;;;;3.41;100.00;99180.88;5048610;28;20421;-83
2022/11/22 05:08:05;;;;;;;10.10;2.60;;;;;;;3.46;100.00;99182.13;5035038;28;20099;-81
2022/11/22 05:11:13;;;;;;;13.55;3.80;;;;;;;3.46;100.00;99181.28;5033132;28;20036;-81
2022/11/22 05:13:22;;;;;;;12.00;2.40;;;;;;;3.46;100.00;99178.66;5030271;28;20042;-82
2022/11/22 05:15:47;;;;;;;11.15;2.92;;;;;;;3.47;100.00;99180.31;5033484;28;20029;-82
2022/11/22 05:18:13;;;;;;;16.75;3.22;;;;;;;3.48;100.00;99174.94;5033358;28;20049;-82
2022/11/22 05:20:38;;;;;;;9.65;2.50;;;;;;;3.47;100.00;99182.97;5033044;28;20037;-82
2022/11/22 05:25:49;;;;;;;8.60;2.25;;;;;;;3.46;100.00;99179.50;5036881;28;20051;-82
2022/11/22 05:28:14;;;;;;;8.85;2.65;;;;;;;3.44;100.00;99183.22;5036861;28;20514;-83
2022/11/22 05:30:40;;;;;;;8.15;2.85;;;;;;;3.43;100.00;99177.13;5036524;28;20374;-81
2022/11/22 05:33:06;;;;;;;13.43;3.22;;;;;;;3.43;100.00;99182.38;5036658;28;20056;-83
2022/11/22 05:35:31;;;;;;;13.00;3.00;;;;;;;3.43;100.00;99173.66;5036708;28;20029;-81
2022/11/22 05:37:57;;;;;;;10.40;2.72;;;;;;;3.40;100.00;99174.75;5036301;28;20033;-82
2022/11/22 05:40:24;;;;;;;8.27;2.80;;;;;;;3.39;100.00;99177.53;5036636;28;20036;-81
2022/11/22 05:42:49;;;;;;;9.98;3.33;;;;;;;3.39;100.00;99186.25;5037163;28;20086;-82
2022/11/22 05:45:14;;;;;;;10.00;2.90;;;;;;;3.39;100.00;99174.88;5036557;28;20029;-82
2022/11/22 05:47:40;;;;;;;6.32;3.28;;;;;;;3.38;100.00;99179.31;5036339;28;20034;-82
2022/11/22 05:50:05;;;;;;;8.90;2.80;;;;;;;3.32;100.00;99175.44;5036133;28;20490;-81
2022/11/22 05:52:31;;;;;;;12.40;2.75;;;;;;;3.28;100.00;99176.66;5036497;28;20030;-81
2022/11/22 05:54:56;;;;;;;6.35;2.35;;;;;;;3.27;100.00;99179.41;5036354;28;20460;-81
2022/11/22 05:57:22;;;;;;;9.27;2.85;;;;;;;3.24;100.00;99177.06;5036761;28;20025;-80
2022/11/22 05:59:47;;;;;;;16.35;2.53;;;;;;;3.26;100.00;99180.41;5036236;28;20029;-82
2022/11/22 06:02:12;;;;;;;6.53;2.28;;;;;;;3.28;100.00;99186.34;5036312;28;20064;-81
2022/11/22 06:04:38;;;;;;;8.15;2.53;;;;;;;3.29;100.00;99188.03;5036076;28;20087;-82
2022/11/22 06:07:03;;;;;;;14.05;2.70;;;;;;;3.27;100.00;99180.28;5036705;28;20025;-81
2022/11/22 06:09:28;;;;;;;10.95;3.00;;;;;;;3.28;100.00;99181.09;5036220;28;20124;-82
2022/11/22 06:11:54;;;;;;;9.55;3.05;;;;;;;3.28;100.00;99173.19;5036399;28;20160;-80
2022/11/22 06:14:19;;;;;;;7.57;3.50;;;;;;;3.28;100.00;99170.56;5036020;28;20033;-84
2022/11/22 06:16:44;;;;;;;8.63;3.78;;;;;;;3.27;100.00;99169.75;5035781;28;20042;-81
2022/11/22 06:19:11;;;;;;;11.23;4.03;;;;;;;3.28;100.00;99178.47;5035907;28;20029;-80
2022/11/22 06:21:37;;;;;;;18.02;4.07;;;;;;;3.28;100.00;99171.41;5035903;28;20104;-80
2022/11/22 06:24:03;;;;;;;14.25;4.50;;;;;;;3.26;100.00;99168.09;5036321;28;20121;-82
2022/11/22 06:26:28;;;;;;;11.82;4.60;;;;;;;3.28;100.00;99166.13;5035657;28;20029;-82
2022/11/22 06:28:54;;;;;;;12.73;4.93;;;;;;;3.25;100.00;99169.03;5035739;28;20039;-80
2022/11/22 06:31:21;;;;;;;9.80;4.15;;;;;;;3.26;100.00;99173.34;5034427;28;20477;-80
2022/11/22 06:33:47;;;;;;;11.85;4.75;;;;;;;3.28;100.00;99171.41;5034573;28;20099;-79
2022/11/22 06:36:15;;;;;;;11.10;4.68;;;;;;;3.27;100.00;99161.88;5035923;28;20029;-84
2022/11/22 06:38:42;;;;;;;11.93;4.13;;;;;;;3.26;100.00;99178.59;5035578;28;20029;-82
2022/11/22 06:41:09;;;;;;;15.07;5.20;;;;;;;3.25;100.00;99170.84;5035451;28;20034;-81
2022/11/22 06:43:36;;;;;;;8.57;4.55;;;;;;;3.26;100.00;99152.31;5035913;28;20345;-78
2022/11/22 06:46:04;;;;;;;9.02;5.13;;;;;;;3.26;100.00;99168.09;5038277;28;20077;-79
2022/11/22 06:48:32;;;;;;;13.38;4.50;;;;;;;3.23;100.00;99157.84;5037912;28;20338;-76
2022/11/22 06:51:09;;;;;;;9.70;4.75;;;;;;;3.21;100.00;99169.44;5036055;28;20021;-81
2022/11/22 06:53:35;;;;;;;13.82;4.90;;;;;;;3.20;100.00;99170.44;5035808;28;20343;-78
2022/11/22 06:56:02;;;;;;;14.15;5.40;;;;;;;3.20;100.00;99175.69;5035721;28;20024;-79
2022/11/22 06:58:27;;;;;;;13.55;4.60;;;;;;;3.21;100.00;99179.94;5037185;28;20022;-79
2022/11/22 07:00:58;;;;;;;10.20;4.70;;;;;;;3.21;100.00;99175.53;5034642;28;20079;-78
2022/11/22 07:03:24;;;;;;;11.68;5.10;;;;;;;3.22;100.00;99179.00;5035196;28;20028;-78
2022/11/22 07:05:50;;;;;;;13.70;4.82;;;;;;;3.25;100.00;99176.91;5034599;28;20033;-75
2022/11/22 07:08:15;;;;;;;7.57;4.30;;;;;;;3.27;100.00;99182.91;5034913;28;20421;-79
2022/11/22 07:10:40;;;;;;;9.55;4.82;;;;;;;3.29;100.00;99180.13;5034453;28;20040;-77
2022/11/22 07:13:06;;;;;;;12.63;4.57;;;;;;;3.32;100.00;99172.81;5034240;28;20435;-77
2022/11/22 07:15:31;;;;;;;9.98;4.55;;;;;;;3.35;100.00;99176.97;5034063;28;20029;-77
2022/11/22 07:17:56;;;;;;;7.90;4.30;;;;;;;3.34;100.00;99178.78;5032622;28;20046;-77
2022/11/22 07:20:22;;;;;;;10.38;4.00;;;;;;;3.39;100.00;99185.41;5032932;28;20029;-77
2022/11/22 07:22:47;;;;;;;9.00;4.15;;;;;;;3.41;100.00;99183.50;5034008;28;20029;-76
2022/11/22 07:25:12;;;;;;;12.05;4.07;;;;;;;3.41;100.00;99186.94;5034203;28;20087;-77
2022/11/22 07:27:38;;;;;;;8.32;4.13;;;;;;;3.41;100.00;99183.50;5034123;28;20025;-78
2022/11/22 07:30:03;;;;;;;11.63;3.72;;;;;;;3.42;100.00;99182.50;5034198;28;20374;-78
2022/11/22 07:32:29;;;;;;;7.93;4.10;;;;;;;3.46;100.00;99176.03;5034297;28;20404;-77
2022/11/22 07:34:54;;;;;;;12.85;4.20;;;;;;;3.45;100.00;99176.97;5033412;28;20381;-77
2022/11/22 07:37:19;;;;;;;6.60;4.15;;;;;;;3.45;100.00;99179.63;5034076;28;20064;-78
2022/11/22 07:39:45;;;;;;;8.63;3.90;;;;;;;3.46;100.00;99189.19;5033887;28;20029;-77
2022/11/22 07:42:10;;;;;;;6.32;3.42;;;;;;;3.46;100.00;99194.44;5034273;28;20025;-77
2022/11/22 07:44:35;;;;;;;11.45;4.05;;;;;;;3.45;100.00;99193.63;5032472;28;20060;-78
2022/11/22 07:47:00;;;;;;;5.65;3.67;;;;;;;3.45;100.00;99188.34;5033818;28;20061;-77
2022/11/22 07:49:26;;;;;;;11.70;3.97;;;;;;;3.48;100.00;99203.03;5033838;28;20073;-76
2022/11/22 07:51:52;;;;;;;12.10;3.53;;;;;;;3.48;100.00;99206.50;5033725;28;20057;-76
2022/11/22 07:54:17;;;;;;;5.85;3.65;;;;;;;3.50;100.00;99201.91;5033789;28;20107;-77
2022/11/22 07:56:43;;;;;;;8.18;3.80;;;;;;;3.52;100.00;99196.53;5033758;28;20143;-79
2022/11/22 07:59:09;;;;;;;8.13;4.07;;;;;;;3.52;100.00;99201.78;5032508;28;20480;-77
2022/11/22 08:01:34;;;;;;;8.38;3.80;;;;;;;3.52;100.00;99202.63;5033508;28;20045;-77
2022/11/22 08:03:59;;;;;;;5.55;3.17;;;;;;;3.53;100.00;99200.81;5033492;28;20116;-77
2022/11/22 08:06:25;;;;;;;10.95;3.97;;;;;;;3.53;100.00;99211.34;5033594;28;20422;-77
2022/11/22 08:08:50;;;;;;;8.57;3.20;;;;;;;3.56;100.00;99212.88;5033448;28;20037;-74
2022/11/22 08:11:15;;;;;;;10.52;3.80;;;;;;;3.60;100.00;99224.78;5033804;28;20044;-78
2022/11/22 08:13:41;;;;;;;10.70;3.58;;;;;;;3.58;100.00;99219.66;5034001;28;20494;-77
2022/11/22 08:16:12;;;;;;;7.80;3.00;;;;;;;3.61;100.00;99219.38;5033844;28;20032;-77
2022/11/22 08:18:39;;;;;;;11.80;3.10;;;;;;;3.63;100.00;99224.53;5033102;28;20042;-77
2022/11/22 08:21:09;;;;;;;7.30;3.00;;;;;;;3.64;100.00;99215.66;5033606;28;20111;-77
2022/11/22 08:23:35;;;;;;;9.23;3.37;;;;;;;3.64;100.00;99218.28;5033350;28;20030;-77
2022/11/22 08:26:01;;;;;;;9.52;3.45;;;;;;;3.67;100.00;99221.50;5033392;28;20104;-77
2022/11/22 08:28:26;;;;;;;10.55;3.33;;;;;;;3.69;100.00;99216.09;5033884;28;20471;-76
2022/11/22 08:30:58;;;;;;;5.65;3.15;;;;;;;3.70;100.00;99207.22;5033807;28;20033;-77
2022/11/22 08:33:24;;;;;;;8.98;3.25;;;;;;;3.72;100.00;99207.94;5033043;28;20029;-79
2022/11/22 08:35:49;;;;;;;9.20;3.40;;;;;;;3.72;100.00;99226.38;5032254;28;20457;-79
2022/11/22 08:38:15;;;;;;;8.38;3.05;;;;;;;3.74;100.00;99237.56;5033501;28;20112;-77
2022/11/22 08:40:41;;;;;;;12.38;3.50;;;;;;;3.76;100.00;99240.06;5033344;28;20059;-77
2022/11/22 08:43:06;;;;;;;7.70;3.65;;;;;;;3.80;100.00;99236.22;5033698;28;20035;-77
2022/11/22 08:45:31;;;;;;;10.55;3.80;;;;;;;3.81;100.00;99243.97;5033824;28;20108;-78
2022/11/22 08:47:57;;;;;;;10.70;3.42;;;;;;;3.82;100.00;99242.16;5048746;28;20029;-77
2022/11/22 08:50:22;;;;;;;7.78;3.53;;;;;;;3.83;100.00;99238.56;5033380;28;20031;-78
2022/11/22 08:52:48;;;;;;;8.05;3.60;;;;;;;3.87;100.00;99238.16;5032880;28;20525;-77
2022/11/22 08:55:13;;;;;;;8.45;3.60;;;;;;;3.91;100.00;99243.97;5032977;28;20056;-78
2022/11/22 08:57:38;;;;;;;9.45;4.03;;;;;;;3.91;100.00;99253.69;5038023;28;20425;-79
2022/11/22 09:00:05;;;;;;;8.18;4.38;;;;;;;3.97;100.00;99261.03;5039729;28;20291;-79
2022/11/22 09:02:30;;;;;;;9.10;3.90;;;;;;;3.97;100.00;99250.50;5040016;28;20056;-79
2022/11/22 09:04:56;;;;;;;5.82;3.55;;;;;;;3.97;100.00;99246.09;5039605;28;20061;-79
2022/11/22 09:07:21;;;;;;;9.43;3.92;;;;;;;3.97;100.00;99251.34;5039712;28;20025;-81
2022/11/22 09:09:46;;;;;;;9.98;3.80;;;;;;;3.99;100.00;99249.41;5039759;28;20446;-78
2022/11/22 09:12:12;;;;;;;6.57;3.90;;;;;;;3.99;100.00;99257.31;5039327;28;20465;-81
2022/11/22 09:14:37;;;;;;;10.80;3.55;;;;;;;4.00;100.00;99248.44;5040159;28;20057;-78
2022/11/22 09:17:04;;;;;;;6.55;3.78;;;;;;;4.03;100.00;99257.84;5039602;28;20029;-79
2022/11/22 09:19:29;;;;;;;10.75;4.00;;;;;;;4.02;100.00;99259.66;5039498;28;20377;-79
2022/11/22 09:21:55;;;;;;;12.95;3.95;;;;;;;4.06;100.00;99255.78;5039540;28;20021;-78
2022/11/22 09:24:20;;;;;;;8.80;3.33;;;;;;;4.08;100.00;99263.56;5039502;28;20512;-79
2022/11/22 09:26:45;;;;;;;11.25;3.70;;;;;;;4.14;100.00;99262.19;5039682;28;20044;-79
2022/11/22 09:29:11;;;;;;;8.13;3.25;;;;;;;4.17;100.00;99261.91;5039619;28;20030;-77
2022/11/22 09:31:36;;;;;;;8.98;3.20;;;;;;;4.19;100.00;99267.84;5039186;28;20484;-82
2022/11/22 09:34:02;;;;;;;9.18;3.15;;;;;;;4.25;100.00;99264.69;5039652;28;20113;-79
2022/11/22 09:36:27;;;;;;;10.32;3.80;;;;;;;4.26;100.00;99261.09;5039646;28;20033;-81
2022/11/22 09:38:54;;;;;;;8.63;3.45;;;;;;;4.28;100.00;99266.22;5039155;28;20040;-81
2022/11/22 09:41:23;;;;;;;5.68;2.90;;;;;;;4.32;100.00;99257.91;5039564;28;20484;-78
2022/11/22 09:43:57;;;;;;;10.45;4.13;;;;;;;4.36;100.00;99259.28;5039425;28;20380;-77
2022/11/22 09:46:45;;;;;;;8.50;3.58;;;;;;;4.39;100.00;99266.09;5039512;28;20130;-80
2022/11/22 09:49:21;;;;;;;6.30;3.10;;;;;;;4.37;100.00;99268.00;5038616;28;20037;-79
2022/11/22 09:52:13;;;;;;;15.93;3.40;;;;;;;4.37;100.00;99266.22;5039746;28;20115;-81
2022/11/22 09:54:50;;;;;;;9.23;2.75;;;;;;;4.40;100.00;99271.22;5038335;28;20043;-79
2022/11/22 09:57:24;;;;;;;8.00;3.88;;;;;;;4.38;100.00;99270.50;5037989;28;20349;-82
2022/11/22 10:00:05;;;;;;;7.97;3.10;;;;;;;4.38;100.00;99274.94;5038687;28;20025;-78
2022/11/22 10:02:42;;;;;;;10.30;3.03;;;;;;;4.38;100.00;99281.03;5038965;28;20044;-77
2022/11/22 10:05:22;;;;;;;6.55;2.40;;;;;;;4.40;100.00;99279.13;5038527;28;20029;-76
2022/11/22 10:07:56;;;;;;;5.80;2.50;;;;;;;4.39;100.00;99276.63;5038395;28;20100;-76
2022/11/22 10:10:28;;;;;;;10.40;3.00;;;;;;;4.41;100.00;99272.88;5035908;28;20155;-75
2022/11/22 10:13:04;;;;;;;9.05;3.03;;;;;;;4.43;100.00;99270.09;5035362;28;20061;-76
2022/11/22 10:15:47;;;;;;;6.93;2.88;;;;;;;4.40;100.00;99270.38;5035750;28;20025;-74
2022/11/22 10:18:29;;;;;;;8.82;2.95;;;;;;;4.41;100.00;99259.69;5035663;28;20052;-74
2022/11/22 10:20:54;;;;;;;9.55;3.00;;;;;;;4.46;100.00;99248.75;5035466;28;20099;-74
2022/11/22 10:23:22;;;;;;;7.93;3.03;;;;;;;4.49;100.00;99256.38;5035433;28;20029;-74
2022/11/22 10:25:57;;;;;;;5.50;2.63;;;;;;;4.49;100.00;99259.00;5035229;28;20449;-80
2022/11/22 10:28:41;;;;;;;6.28;2.90;;;;;;;4.48;100.00;99267.91;5035389;28;20029;-78
2022/11/22 10:31:22;;;;;;;7.80;2.90;;;;;;;4.50;100.00;99267.75;5035208;28;20040;-77
2022/11/22 10:34:12;;;;;;;7.03;2.90;;;;;;;4.49;100.00;99264.28;5035491;28;20075;-78
2022/11/22 10:36:47;;;;;;;9.20;2.75;;;;;;;4.48;100.00;99270.53;5035811;28;20327;-79
2022/11/22 10:39:12;;;;;;;8.20;2.95;;;;;;;4.48;100.00;99265.25;5035791;28;20369;-79
2022/11/22 10:41:56;;;;;;;11.93;3.28;;;;;;;4.49;100.00;99266.09;5035354;28;20025;-78
2022/11/22 10:44:44;;;;;;;8.82;2.60;;;;;;;4.47;100.00;99270.66;5035300;28;20065;-80
2022/11/22 10:47:27;;;;;;;5.95;2.80;;;;;;;4.48;100.00;99260.00;5035182;28;20090;-78
2022/11/22 10:49:55;;;;;;;10.48;3.22;;;;;;;4.49;100.00;99261.63;5034944;28;20030;-79
2022/11/22 10:52:27;;;;;;;9.30;2.38;;;;;;;4.52;100.00;99252.63;5034814;28;20366;-79
2022/11/22 10:55:21;;;;;;;8.48;2.53;;;;;;;4.53;100.00;99251.66;5035390;28;20034;-78
2022/11/22 10:58:28;;;;;;;8.27;2.97;;;;;;;4.53;100.00;99251.66;5034857;28;20053;-78
2022/11/22 11:01:18;;;;;;;7.57;2.78;;;;;;;4.57;100.00;99253.88;5032362;28;20596;-78
2022/11/22 11:03:46;;;;;;;6.80;3.03;;;;;;;4.57;100.00;99245.16;5034772;28;20049;-78
2022/11/22 11:06:37;;;;;;;4.45;2.53;;;;;;;4.61;100.00;99248.34;5033882;28;20026;-80
2022/11/22 11:09:28;;;;;;;6.07;2.80;;;;;;;4.61;100.00;99243.88;5034798;28;20032;-79
2022/11/22 11:11:54;;;;;;;6.13;2.42;;;;;;;4.64;100.00;99240.16;5035081;28;20147;-78
2022/11/22 11:14:29;;;;;;;7.40;2.60;;;;;;;4.64;100.00;99248.88;5034457;28;20057;-78
2022/11/22 11:16:54;;;;;;;5.75;2.65;;;;;;;4.66;100.00;99248.72;5034704;28;20072;-76
2022/11/22 11:19:23;;;;;;;8.10;2.67;;;;;;;4.65;100.00;99240.00;5034182;28;20488;-76
2022/11/22 11:22:15;;;;;;;5.85;2.35;;;;;;;4.68;100.00;99238.91;5034151;28;20025;-76
2022/11/22 11:24:40;;;;;;;7.53;2.60;;;;;;;4.66;100.00;99231.16;5033597;28;20076;-77
2022/11/22 11:27:09;;;;;;;3.63;2.42;;;;;;;4.64;100.00;99240.16;5034017;28;20068;-77
2022/11/22 11:29:53;;;;;;;3.75;2.30;;;;;;;4.66;100.00;99227.66;5034589;28;20067;-74
2022/11/22 11:32:20;;;;;;;6.22;2.55;;;;;;;4.69;100.00;99228.22;5034574;28;20021;-75
2022/11/22 11:34:55;;;;;;;4.20;2.30;;;;;;;4.72;100.00;99227.13;5034121;28;20030;-75
2022/11/22 11:37:25;;;;;;;11.25;2.95;;;;;;;4.81;100.00;99220.16;5033806;28;20053;-74
2022/11/22 11:39:50;;;;;;;8.25;2.65;;;;;;;4.90;100.00;99225.41;5033872;28;20033;-75
2022/11/22 11:42:31;;;;;;;5.72;2.45;;;;;;;5.00;100.00;99214.00;5033748;28;20037;-76
2022/11/22 11:45:20;;;;;;;7.60;2.30;;;;;;;5.14;100.00;99213.56;5033815;28;20029;-75
2022/11/22 11:47:45;;;;;;;4.47;2.40;;;;;;;5.22;100.00;99212.84;5033766;28;20028;-74
2022/11/22 11:50:19;;;;;;;5.90;2.38;;;;;;;5.32;100.00;99218.91;5034079;28;20033;-78